Time,TemperatureF,DewpointF,PressureIn,WindDirection,WindDirectionDegrees,WindSpeedMPH,WindSpeedGustMPH,Humidity,HourlyPrecipIn,Conditions,Clouds,dailyrainin,SoftwareType,DateUTC
2013-03-04 00:00:00,66.9,56.0,30.10,NE,45,5.0,-999.0,68,0.00,,,0.00,Wunderground v.1.15,2013-03-04 10:00:00,
2013-03-04 00:05:00,66.9,56.0,30.10,NE,45,5.0,-999.0,68,0.00,,,0.00,Wunderground v.1.15,2013-03-04 10:05:00,
2013-03-04 00:10:00,66.9,56.0,30.10,NE,45,5.0,-999.0,68,0.00,,,0.00,Wunderground v.1.15,2013-03-04 10:10:00,
2013-03-04 00:15:00,66.9,56.0,30.10,NE,45,5.0,-999.0,68,0.00,,,0.00,Wunderground v.1.15,2013-03-04 10:15:00,
2013-03-04 00:20:00,66.9,56.0,30.10,NE,45,5.0,-999.0,68,0.00,,,0.00,Wunderground v.1.15,2013-03-04 10:20:00,
2013-03-04 00:25:00,66.9,56.0,30.10,NE,45,5.0,-999.0,68,0.00,,,0.00,Wunderground v.1.15,2013-03-04 10:25:00,
2013-03-04 00:30:00,66.9,56.0,30.10,NE,45,5.0,-999.0,68,0.00,,,0.00,Wunderground v.1.15,2013-03-04 10:30:00,
2013-03-04 00:35:00,66.9,56.0,30.10,NE,45,5.0,-999.0,68,0.00,,,0.00,Wunderground v.1.15,2013-03-04 10:35:00,
2013-03-04 00:40:00,66.9,56.0,30.10,NE,45,5.0,-999.0,68,0.00,,,0.00,Wunderground v.1.15,2013-03-04 10:40:00,
2013-03-04 00:45:00,66.6,56.1,30.09,ENE,68,3.0,-999.0,69,0.00,,,0.00,Wunderground v.1.15,2013-03-04 10:45:00,
2013-03-04 00:50:00,66.6,56.1,30.09,ENE,68,3.0,-999.0,69,0.00,,,0.00,Wunderground v.1.15,2013-03-04 10:50:00,
2013-03-04 00:55:00,66.6,56.1,30.09,ENE,68,3.0,-999.0,69,0.00,,,0.00,Wunderground v.1.15,2013-03-04 10:55:00,
2013-03-04 01:00:00,66.6,56.1,30.09,ENE,68,3.0,-999.0,69,0.00,,,0.00,Wunderground v.1.15,2013-03-04 11:00:00,
2013-03-04 01:05:00,66.6,56.1,30.09,ENE,68,3.0,-999.0,69,0.00,,,0.00,Wunderground v.1.15,2013-03-04 11:05:00,
2013-03-04 01:10:00,66.6,56.1,30.09,ENE,68,3.0,-999.0,69,0.00,,,0.00,Wunderground v.1.15,2013-03-04 11:10:00,
2013-03-04 01:15:00,66.8,56.7,30.09,NE,45,3.0,-999.0,70,0.00,,,0.00,Wunderground v.1.15,2013-03-04 11:15:00,
2013-03-04 01:20:00,66.8,56.7,30.09,NE,45,3.0,-999.0,70,0.00,,,0.00,Wunderground v.1.15,2013-03-04 11:20:00,
2013-03-04 01:25:00,66.8,56.7,30.09,NE,45,3.0,-999.0,70,0.00,,,0.00,Wunderground v.1.15,2013-03-04 11:25:00,
2013-03-04 01:30:00,66.8,56.7,30.09,NE,45,3.0,-999.0,70,0.00,,,0.00,Wunderground v.1.15,2013-03-04 11:30:00,
2013-03-04 01:35:00,66.8,56.7,30.09,NE,45,3.0,-999.0,70,0.00,,,0.00,Wunderground v.1.15,2013-03-04 11:35:00,
2013-03-04 01:40:00,66.8,56.7,30.09,NE,45,3.0,-999.0,70,0.00,,,0.00,Wunderground v.1.15,2013-03-04 11:40:00,
2013-03-04 01:45:00,67.0,56.5,30.09,NE,45,3.0,-999.0,69,0.00,,,0.00,Wunderground v.1.15,2013-03-04 11:45:00,
2013-03-04 01:50:00,67.0,56.5,30.09,NE,45,3.0,-999.0,69,0.00,,,0.00,Wunderground v.1.15,2013-03-04 11:50:00,
2013-03-04 01:55:00,67.0,56.5,30.09,NE,45,3.0,-999.0,69,0.00,,,0.00,Wunderground v.1.15,2013-03-04 11:55:00,
2013-03-04 02:00:00,67.0,56.5,30.09,NE,45,3.0,-999.0,69,0.00,,,0.00,Wunderground v.1.15,2013-03-04 12:00:00,
2013-03-04 02:05:00,67.0,56.5,30.09,NE,45,3.0,-999.0,69,0.00,,,0.00,Wunderground v.1.15,2013-03-04 12:05:00,
2013-03-04 02:10:00,67.0,56.5,30.09,NE,45,3.0,-999.0,69,0.00,,,0.00,Wunderground v.1.15,2013-03-04 12:10:00,
2013-03-04 02:15:00,67.1,54.9,30.08,NE,45,4.0,-999.0,65,0.00,,,0.00,Wunderground v.1.15,2013-03-04 12:15:00,
2013-03-04 02:20:00,67.1,54.9,30.08,NE,45,4.0,-999.0,65,0.00,,,0.00,Wunderground v.1.15,2013-03-04 12:20:00,
2013-03-04 02:25:00,67.1,54.9,30.08,NE,45,4.0,-999.0,65,0.00,,,0.00,Wunderground v.1.15,2013-03-04 12:25:00,
2013-03-04 02:30:00,67.1,54.9,30.08,NE,45,4.0,-999.0,65,0.00,,,0.00,Wunderground v.1.15,2013-03-04 12:30:00,
2013-03-04 02:35:00,67.1,54.9,30.08,NE,45,4.0,-999.0,65,0.00,,,0.00,Wunderground v.1.15,2013-03-04 12:35:00,
2013-03-04 02:40:00,67.1,54.9,30.08,NE,45,4.0,-999.0,65,0.00,,,0.00,Wunderground v.1.15,2013-03-04 12:40:00,
2013-03-04 02:45:00,67.2,56.3,30.07,NE,45,5.0,-999.0,68,0.00,,,0.00,Wunderground v.1.15,2013-03-04 12:45:00,
2013-03-04 02:50:00,67.2,56.3,30.07,NE,45,5.0,-999.0,68,0.00,,,0.00,Wunderground v.1.15,2013-03-04 12:50:00,
2013-03-04 02:55:00,67.2,56.3,30.07,NE,45,5.0,-999.0,68,0.00,,,0.00,Wunderground v.1.15,2013-03-04 12:55:00,
2013-03-04 03:00:00,67.2,56.3,30.07,NE,45,5.0,-999.0,68,0.00,,,0.00,Wunderground v.1.15,2013-03-04 13:00:00,
2013-03-04 03:05:00,67.2,56.3,30.07,NE,45,5.0,-999.0,68,0.00,,,0.00,Wunderground v.1.15,2013-03-04 13:05:00,
2013-03-04 03:10:00,67.2,56.3,30.07,NE,45,5.0,-999.0,68,0.00,,,0.00,Wunderground v.1.15,2013-03-04 13:10:00,
2013-03-04 03:15:00,67.2,55.9,30.07,NE,45,7.0,-999.0,67,0.00,,,0.00,Wunderground v.1.15,2013-03-04 13:15:00,
2013-03-04 03:20:00,67.2,55.9,30.07,NE,45,7.0,-999.0,67,0.00,,,0.00,Wunderground v.1.15,2013-03-04 13:20:00,
2013-03-04 03:25:00,67.2,55.9,30.07,NE,45,7.0,-999.0,67,0.00,,,0.00,Wunderground v.1.15,2013-03-04 13:25:00,
2013-03-04 03:30:00,67.2,55.9,30.07,NE,45,7.0,-999.0,67,0.00,,,0.00,Wunderground v.1.15,2013-03-04 13:30:00,
2013-03-04 03:35:00,67.2,55.9,30.07,NE,45,7.0,-999.0,67,0.00,,,0.00,Wunderground v.1.15,2013-03-04 13:35:00,
2013-03-04 03:40:00,67.2,55.9,30.07,NE,45,7.0,-999.0,67,0.00,,,0.00,Wunderground v.1.15,2013-03-04 13:40:00,
2013-03-04 03:45:00,67.0,55.3,30.07,NE,45,7.0,-999.0,66,0.00,,,0.00,Wunderground v.1.15,2013-03-04 13:45:00,
2013-03-04 03:50:00,67.0,55.3,30.07,NE,45,7.0,-999.0,66,0.00,,,0.00,Wunderground v.1.15,2013-03-04 13:50:00,
2013-03-04 03:55:00,67.0,55.3,30.07,NE,45,7.0,-999.0,66,0.00,,,0.00,Wunderground v.1.15,2013-03-04 13:55:00,
2013-03-04 04:00:00,67.0,55.3,30.07,NE,45,7.0,-999.0,66,0.00,,,0.00,Wunderground v.1.15,2013-03-04 14:00:00,
2013-03-04 04:05:00,67.0,55.3,30.07,NE,45,7.0,-999.0,66,0.00,,,0.00,Wunderground v.1.15,2013-03-04 14:05:00,
2013-03-04 04:10:00,67.0,55.3,30.07,NE,45,7.0,-999.0,66,0.00,,,0.00,Wunderground v.1.15,2013-03-04 14:10:00,
2013-03-04 04:15:00,66.9,54.3,30.07,NE,45,7.0,-999.0,64,0.00,,,0.00,Wunderground v.1.15,2013-03-04 14:15:00,
2013-03-04 04:20:00,66.9,54.3,30.07,NE,45,7.0,-999.0,64,0.00,,,0.00,Wunderground v.1.15,2013-03-04 14:20:00,
2013-03-04 04:25:00,66.9,54.3,30.07,NE,45,7.0,-999.0,64,0.00,,,0.00,Wunderground v.1.15,2013-03-04 14:25:00,
2013-03-04 04:30:00,66.9,54.3,30.07,NE,45,7.0,-999.0,64,0.00,,,0.00,Wunderground v.1.15,2013-03-04 14:30:00,
2013-03-04 04:35:00,66.9,54.3,30.07,NE,45,7.0,-999.0,64,0.00,,,0.00,Wunderground v.1.15,2013-03-04 14:35:00,
2013-03-04 04:40:00,66.9,54.3,30.07,NE,45,7.0,-999.0,64,0.00,,,0.00,Wunderground v.1.15,2013-03-04 14:40:00,
2013-03-04 04:45:00,66.9,54.3,30.08,NE,45,6.0,-999.0,64,0.00,,,0.00,Wunderground v.1.15,2013-03-04 14:45:00,
2013-03-04 04:50:00,66.9,54.3,30.08,NE,45,6.0,-999.0,64,0.00,,,0.00,Wunderground v.1.15,2013-03-04 14:50:00,
2013-03-04 04:55:00,66.9,54.3,30.08,NE,45,6.0,-999.0,64,0.00,,,0.00,Wunderground v.1.15,2013-03-04 14:55:00,
2013-03-04 05:00:00,66.9,54.3,30.08,NE,45,6.0,-999.0,64,0.00,,,0.00,Wunderground v.1.15,2013-03-04 15:00:00,
2013-03-04 05:05:00,66.9,54.3,30.08,NE,45,6.0,-999.0,64,0.00,,,0.00,Wunderground v.1.15,2013-03-04 15:05:00,
2013-03-04 05:10:00,66.9,54.3,30.08,NE,45,6.0,-999.0,64,0.00,,,0.00,Wunderground v.1.15,2013-03-04 15:10:00,
2013-03-04 05:15:00,67.0,54.0,30.08,NE,45,6.0,-999.0,63,0.00,,,0.00,Wunderground v.1.15,2013-03-04 15:15:00,
2013-03-04 05:20:00,67.0,54.0,30.08,NE,45,6.0,-999.0,63,0.00,,,0.00,Wunderground v.1.15,2013-03-04 15:20:00,
2013-03-04 05:25:00,67.0,54.0,30.08,NE,45,6.0,-999.0,63,0.00,,,0.00,Wunderground v.1.15,2013-03-04 15:25:00,
2013-03-04 05:30:00,67.0,54.0,30.08,NE,45,6.0,-999.0,63,0.00,,,0.00,Wunderground v.1.15,2013-03-04 15:30:00,
2013-03-04 05:35:00,67.0,54.0,30.08,NE,45,6.0,-999.0,63,0.00,,,0.00,Wunderground v.1.15,2013-03-04 15:35:00,
2013-03-04 05:40:00,67.0,54.0,30.08,NE,45,6.0,-999.0,63,0.00,,,0.00,Wunderground v.1.15,2013-03-04 15:40:00,
2013-03-04 05:45:00,67.0,52.7,30.09,NE,45,6.0,-999.0,60,0.00,,,0.00,Wunderground v.1.15,2013-03-04 15:45:00,
2013-03-04 05:50:00,67.0,52.7,30.09,NE,45,6.0,-999.0,60,0.00,,,0.00,Wunderground v.1.15,2013-03-04 15:50:00,
2013-03-04 05:55:00,67.0,52.7,30.09,NE,45,6.0,-999.0,60,0.00,,,0.00,Wunderground v.1.15,2013-03-04 15:55:00,
2013-03-04 06:00:00,67.0,52.7,30.09,NE,45,6.0,-999.0,60,0.00,,,0.00,Wunderground v.1.15,2013-03-04 16:00:00,
2013-03-04 06:05:00,67.0,52.7,30.09,NE,45,6.0,-999.0,60,0.00,,,0.00,Wunderground v.1.15,2013-03-04 16:05:00,
2013-03-04 06:10:00,67.0,52.7,30.09,NE,45,6.0,-999.0,60,0.00,,,0.00,Wunderground v.1.15,2013-03-04 16:10:00,
2013-03-04 06:15:00,66.8,55.5,30.09,NE,45,7.0,-999.0,67,0.00,,,0.00,Wunderground v.1.15,2013-03-04 16:15:00,
2013-03-04 06:20:00,66.8,55.5,30.09,NE,45,7.0,-999.0,67,0.00,,,0.00,Wunderground v.1.15,2013-03-04 16:20:00,
2013-03-04 06:25:00,66.8,55.5,30.09,NE,45,7.0,-999.0,67,0.00,,,0.00,Wunderground v.1.15,2013-03-04 16:25:00,
2013-03-04 06:30:00,66.8,55.5,30.09,NE,45,7.0,-999.0,67,0.00,,,0.00,Wunderground v.1.15,2013-03-04 16:30:00,
2013-03-04 06:35:00,66.8,55.5,30.09,NE,45,7.0,-999.0,67,0.00,,,0.00,Wunderground v.1.15,2013-03-04 16:35:00,
2013-03-04 06:40:00,66.8,55.5,30.09,NE,45,7.0,-999.0,67,0.00,,,0.00,Wunderground v.1.15,2013-03-04 16:40:00,
2013-03-04 06:45:00,66.3,56.6,30.10,NE,45,9.0,-999.0,71,0.00,,,0.00,Wunderground v.1.15,2013-03-04 16:45:00,
2013-03-04 06:50:00,66.3,56.6,30.10,NE,45,9.0,-999.0,71,0.00,,,0.00,Wunderground v.1.15,2013-03-04 16:50:00,
2013-03-04 06:55:00,66.3,56.6,30.10,NE,45,9.0,-999.0,71,0.00,,,0.00,Wunderground v.1.15,2013-03-04 16:55:00,
2013-03-04 07:00:00,66.3,56.6,30.10,NE,45,9.0,-999.0,71,0.00,,,0.00,Wunderground v.1.15,2013-03-04 17:00:00,
2013-03-04 07:05:00,66.3,56.6,30.10,NE,45,9.0,-999.0,71,0.00,,,0.00,Wunderground v.1.15,2013-03-04 17:05:00,
2013-03-04 07:10:00,66.3,56.6,30.10,NE,45,9.0,-999.0,71,0.00,,,0.00,Wunderground v.1.15,2013-03-04 17:10:00,
2013-03-04 07:15:00,66.1,54.8,30.10,NE,45,7.0,-999.0,67,0.00,,,0.00,Wunderground v.1.15,2013-03-04 17:15:00,
2013-03-04 07:20:00,66.1,54.8,30.10,NE,45,7.0,-999.0,67,0.00,,,0.00,Wunderground v.1.15,2013-03-04 17:20:00,
2013-03-04 07:25:00,66.1,54.8,30.10,NE,45,7.0,-999.0,67,0.00,,,0.00,Wunderground v.1.15,2013-03-04 17:25:00,
2013-03-04 07:30:00,66.1,54.8,30.10,NE,45,7.0,-999.0,67,0.00,,,0.00,Wunderground v.1.15,2013-03-04 17:30:00,
2013-03-04 07:35:00,66.1,54.8,30.10,NE,45,7.0,-999.0,67,0.00,,,0.00,Wunderground v.1.15,2013-03-04 17:35:00,
2013-03-04 07:40:00,66.1,54.8,30.10,NE,45,7.0,-999.0,67,0.00,,,0.00,Wunderground v.1.15,2013-03-04 17:40:00,
2013-03-04 07:45:00,66.7,52.4,30.11,NE,45,6.0,-999.0,60,0.00,,,0.00,Wunderground v.1.15,2013-03-04 17:45:00,
2013-03-04 07:50:00,66.7,52.4,30.11,NE,45,6.0,-999.0,60,0.00,,,0.00,Wunderground v.1.15,2013-03-04 17:50:00,
2013-03-04 07:55:00,66.7,52.4,30.11,NE,45,6.0,-999.0,60,0.00,,,0.00,Wunderground v.1.15,2013-03-04 17:55:00,
2013-03-04 08:00:00,66.7,52.4,30.11,NE,45,6.0,-999.0,60,0.00,,,0.00,Wunderground v.1.15,2013-03-04 18:00:00,
2013-03-04 08:05:00,66.7,52.4,30.11,NE,45,6.0,-999.0,60,0.00,,,0.00,Wunderground v.1.15,2013-03-04 18:05:00,
2013-03-04 08:10:00,66.7,52.4,30.11,NE,45,6.0,-999.0,60,0.00,,,0.00,Wunderground v.1.15,2013-03-04 18:10:00,
2013-03-04 08:15:00,69.2,54.7,30.11,NE,45,9.0,-999.0,60,0.00,,,0.00,Wunderground v.1.15,2013-03-04 18:15:00,
2013-03-04 08:20:00,69.2,54.7,30.11,NE,45,9.0,-999.0,60,0.00,,,0.00,Wunderground v.1.15,2013-03-04 18:20:00,
2013-03-04 08:25:00,69.2,54.7,30.11,NE,45,9.0,-999.0,60,0.00,,,0.00,Wunderground v.1.15,2013-03-04 18:25:00,
2013-03-04 08:30:00,69.2,54.7,30.11,NE,45,9.0,-999.0,60,0.00,,,0.00,Wunderground v.1.15,2013-03-04 18:30:00,
2013-03-04 08:35:00,69.2,54.7,30.11,NE,45,9.0,-999.0,60,0.00,,,0.00,Wunderground v.1.15,2013-03-04 18:35:00,
2013-03-04 08:40:00,69.2,54.7,30.11,NE,45,9.0,-999.0,60,0.00,,,0.00,Wunderground v.1.15,2013-03-04 18:40:00,
2013-03-04 08:45:00,70.9,52.9,30.11,NE,45,9.0,-999.0,53,0.00,,,0.00,Wunderground v.1.15,2013-03-04 18:45:00,
2013-03-04 08:50:00,70.9,52.9,30.11,NE,45,9.0,-999.0,53,0.00,,,0.00,Wunderground v.1.15,2013-03-04 18:50:00,
2013-03-04 08:55:00,70.9,52.9,30.11,NE,45,9.0,-999.0,53,0.00,,,0.00,Wunderground v.1.15,2013-03-04 18:55:00,
2013-03-04 09:00:00,70.9,52.9,30.11,NE,45,9.0,-999.0,53,0.00,,,0.00,Wunderground v.1.15,2013-03-04 19:00:00,
2013-03-04 09:05:00,70.9,52.9,30.11,NE,45,9.0,-999.0,53,0.00,,,0.00,Wunderground v.1.15,2013-03-04 19:05:00,
2013-03-04 09:10:00,70.9,52.9,30.11,NE,45,9.0,-999.0,53,0.00,,,0.00,Wunderground v.1.15,2013-03-04 19:10:00,
2013-03-04 09:15:00,72.1,54.5,30.11,NE,45,8.0,-999.0,54,0.00,,,0.00,Wunderground v.1.15,2013-03-04 19:15:00,
2013-03-04 09:20:00,72.1,54.5,30.11,NE,45,8.0,-999.0,54,0.00,,,0.00,Wunderground v.1.15,2013-03-04 19:20:00,
2013-03-04 09:25:00,72.1,54.5,30.11,NE,45,8.0,-999.0,54,0.00,,,0.00,Wunderground v.1.15,2013-03-04 19:25:00,
2013-03-04 09:30:00,72.1,54.5,30.11,NE,45,8.0,-999.0,54,0.00,,,0.00,Wunderground v.1.15,2013-03-04 19:30:00,
2013-03-04 09:35:00,72.1,54.5,30.11,NE,45,8.0,-999.0,54,0.00,,,0.00,Wunderground v.1.15,2013-03-04 19:35:00,
2013-03-04 09:40:00,72.1,54.5,30.11,NE,45,8.0,-999.0,54,0.00,,,0.00,Wunderground v.1.15,2013-03-04 19:40:00,
2013-03-04 09:45:00,72.5,55.9,30.12,NE,45,7.0,-999.0,56,0.00,,,0.00,Wunderground v.1.15,2013-03-04 19:45:00,
2013-03-04 09:50:00,72.5,55.9,30.12,NE,45,7.0,-999.0,56,0.00,,,0.00,Wunderground v.1.15,2013-03-04 19:50:00,
2013-03-04 09:55:00,72.5,55.9,30.12,NE,45,7.0,-999.0,56,0.00,,,0.00,Wunderground v.1.15,2013-03-04 19:55:00,
2013-03-04 10:00:00,72.5,55.9,30.12,NE,45,7.0,-999.0,56,0.00,,,0.00,Wunderground v.1.15,2013-03-04 20:00:00,
2013-03-04 10:05:00,72.5,55.9,30.12,NE,45,7.0,-999.0,56,0.00,,,0.00,Wunderground v.1.15,2013-03-04 20:05:00,
2013-03-04 10:10:00,72.5,55.9,30.12,NE,45,7.0,-999.0,56,0.00,,,0.00,Wunderground v.1.15,2013-03-04 20:10:00,
2013-03-04 10:15:00,73.2,57.1,30.11,NE,45,9.0,-999.0,57,0.00,,,0.00,Wunderground v.1.15,2013-03-04 20:15:00,
2013-03-04 10:20:00,73.2,57.1,30.11,NE,45,9.0,-999.0,57,0.00,,,0.00,Wunderground v.1.15,2013-03-04 20:20:00,
2013-03-04 10:25:00,73.2,57.1,30.11,NE,45,9.0,-999.0,57,0.00,,,0.00,Wunderground v.1.15,2013-03-04 20:25:00,
2013-03-04 10:30:00,73.2,57.1,30.11,NE,45,9.0,-999.0,57,0.00,,,0.00,Wunderground v.1.15,2013-03-04 20:30:00,
2013-03-04 10:35:00,73.2,57.1,30.11,NE,45,9.0,-999.0,57,0.00,,,0.00,Wunderground v.1.15,2013-03-04 20:35:00,
2013-03-04 10:40:00,73.2,57.1,30.11,NE,45,9.0,-999.0,57,0.00,,,0.00,Wunderground v.1.15,2013-03-04 20:40:00,
2013-03-04 10:45:00,74.5,53.5,30.11,NE,45,7.0,-999.0,48,0.00,,,0.00,Wunderground v.1.15,2013-03-04 20:45:00,
2013-03-04 10:50:00,74.5,53.5,30.11,NE,45,7.0,-999.0,48,0.00,,,0.00,Wunderground v.1.15,2013-03-04 20:50:00,
2013-03-04 10:55:00,74.5,53.5,30.11,NE,45,7.0,-999.0,48,0.00,,,0.00,Wunderground v.1.15,2013-03-04 20:55:00,
2013-03-04 11:00:00,74.5,53.5,30.11,NE,45,7.0,-999.0,48,0.00,,,0.00,Wunderground v.1.15,2013-03-04 21:00:00,
2013-03-04 11:05:00,74.5,53.5,30.11,NE,45,7.0,-999.0,48,0.00,,,0.00,Wunderground v.1.15,2013-03-04 21:05:00,
2013-03-04 11:10:00,74.5,53.5,30.11,NE,45,7.0,-999.0,48,0.00,,,0.00,Wunderground v.1.15,2013-03-04 21:10:00,
2013-03-04 11:15:00,77.3,54.3,30.10,NE,45,7.0,-999.0,45,0.00,,,0.00,Wunderground v.1.15,2013-03-04 21:15:00,
2013-03-04 11:20:00,77.3,54.3,30.10,NE,45,7.0,-999.0,45,0.00,,,0.00,Wunderground v.1.15,2013-03-04 21:20:00,
2013-03-04 11:25:00,77.3,54.3,30.10,NE,45,7.0,-999.0,45,0.00,,,0.00,Wunderground v.1.15,2013-03-04 21:25:00,
2013-03-04 11:30:00,77.3,54.3,30.10,NE,45,7.0,-999.0,45,0.00,,,0.00,Wunderground v.1.15,2013-03-04 21:30:00,
2013-03-04 11:35:00,77.3,54.3,30.10,NE,45,7.0,-999.0,45,0.00,,,0.00,Wunderground v.1.15,2013-03-04 21:35:00,
2013-03-04 11:40:00,77.3,54.3,30.10,NE,45,7.0,-999.0,45,0.00,,,0.00,Wunderground v.1.15,2013-03-04 21:40:00,
2013-03-04 11:45:00,78.3,56.4,30.09,NE,45,9.0,-999.0,47,0.00,,,0.00,Wunderground v.1.15,2013-03-04 21:45:00,
2013-03-04 11:50:00,78.3,56.4,30.09,NE,45,9.0,-999.0,47,0.00,,,0.00,Wunderground v.1.15,2013-03-04 21:50:00,
2013-03-04 11:55:00,78.3,56.4,30.09,NE,45,9.0,-999.0,47,0.00,,,0.00,Wunderground v.1.15,2013-03-04 21:55:00,
2013-03-04 12:00:00,78.3,56.4,30.09,NE,45,9.0,-999.0,47,0.00,,,0.00,Wunderground v.1.15,2013-03-04 22:00:00,
2013-03-04 12:05:00,78.3,56.4,30.09,NE,45,9.0,-999.0,47,0.00,,,0.00,Wunderground v.1.15,2013-03-04 22:05:00,
2013-03-04 12:10:00,78.3,56.4,30.09,NE,45,9.0,-999.0,47,0.00,,,0.00,Wunderground v.1.15,2013-03-04 22:10:00,
2013-03-04 12:15:00,76.7,58.3,30.08,NE,45,8.0,-999.0,53,0.00,,,0.00,Wunderground v.1.15,2013-03-04 22:15:00,
2013-03-04 12:20:00,76.7,58.3,30.08,NE,45,8.0,-999.0,53,0.00,,,0.00,Wunderground v.1.15,2013-03-04 22:20:00,
2013-03-04 12:25:00,76.7,58.3,30.08,NE,45,8.0,-999.0,53,0.00,,,0.00,Wunderground v.1.15,2013-03-04 22:25:00,
2013-03-04 12:30:00,76.7,58.3,30.08,NE,45,8.0,-999.0,53,0.00,,,0.00,Wunderground v.1.15,2013-03-04 22:30:00,
2013-03-04 12:35:00,76.7,58.3,30.08,NE,45,8.0,-999.0,53,0.00,,,0.00,Wunderground v.1.15,2013-03-04 22:35:00,
2013-03-04 12:40:00,76.7,58.3,30.08,NE,45,8.0,-999.0,53,0.00,,,0.00,Wunderground v.1.15,2013-03-04 22:40:00,
2013-03-04 12:45:00,76.9,54.5,30.06,NE,45,8.0,-999.0,46,0.00,,,0.00,Wunderground v.1.15,2013-03-04 22:45:00,
2013-03-04 12:50:00,76.9,54.5,30.06,NE,45,8.0,-999.0,46,0.00,,,0.00,Wunderground v.1.15,2013-03-04 22:50:00,
2013-03-04 12:55:00,76.9,54.5,30.06,NE,45,8.0,-999.0,46,0.00,,,0.00,Wunderground v.1.15,2013-03-04 22:55:00,
2013-03-04 13:00:00,76.9,54.5,30.06,NE,45,8.0,-999.0,46,0.00,,,0.00,Wunderground v.1.15,2013-03-04 23:00:00,
2013-03-04 13:05:00,76.9,54.5,30.06,NE,45,8.0,-999.0,46,0.00,,,0.00,Wunderground v.1.15,2013-03-04 23:05:00,
2013-03-04 13:10:00,76.9,54.5,30.06,NE,45,8.0,-999.0,46,0.00,,,0.00,Wunderground v.1.15,2013-03-04 23:10:00,
2013-03-04 13:15:00,78.9,55.8,30.05,NE,45,10.0,-999.0,45,0.00,,,0.00,Wunderground v.1.15,2013-03-04 23:15:00,
2013-03-04 13:20:00,78.9,55.8,30.05,NE,45,10.0,-999.0,45,0.00,,,0.00,Wunderground v.1.15,2013-03-04 23:20:00,
2013-03-04 13:25:00,78.9,55.8,30.05,NE,45,10.0,-999.0,45,0.00,,,0.00,Wunderground v.1.15,2013-03-04 23:25:00,
2013-03-04 13:30:00,78.9,55.8,30.05,NE,45,10.0,-999.0,45,0.00,,,0.00,Wunderground v.1.15,2013-03-04 23:30:00,
2013-03-04 13:35:00,78.9,55.8,30.05,NE,45,10.0,-999.0,45,0.00,,,0.00,Wunderground v.1.15,2013-03-04 23:35:00,
2013-03-04 13:40:00,78.9,55.8,30.05,NE,45,10.0,-999.0,45,0.00,,,0.00,Wunderground v.1.15,2013-03-04 23:40:00,
2013-03-04 13:45:00,78.8,56.9,30.05,NE,45,10.0,-999.0,47,0.00,,,0.00,Wunderground v.1.15,2013-03-04 23:45:00,
2013-03-04 13:50:00,78.8,56.9,30.05,NE,45,10.0,-999.0,47,0.00,,,0.00,Wunderground v.1.15,2013-03-04 23:50:00,
2013-03-04 13:55:00,78.8,56.9,30.05,NE,45,10.0,-999.0,47,0.00,,,0.00,Wunderground v.1.15,2013-03-04 23:55:00,
2013-03-04 14:00:00,78.8,56.9,30.05,NE,45,10.0,-999.0,47,0.00,,,0.00,Wunderground v.1.15,2013-03-05 00:00:00,
2013-03-04 14:05:00,78.8,56.9,30.05,NE,45,10.0,-999.0,47,0.00,,,0.00,Wunderground v.1.15,2013-03-05 00:05:00,
2013-03-04 14:10:00,78.8,56.9,30.05,NE,45,10.0,-999.0,47,0.00,,,0.00,Wunderground v.1.15,2013-03-05 00:10:00,
2013-03-04 14:15:00,79.7,57.1,30.04,NE,45,10.0,-999.0,46,0.00,,,0.00,Wunderground v.1.15,2013-03-05 00:15:00,
2013-03-04 14:20:00,79.7,57.1,30.04,NE,45,10.0,-999.0,46,0.00,,,0.00,Wunderground v.1.15,2013-03-05 00:20:00,
2013-03-04 14:25:00,79.7,57.1,30.04,NE,45,10.0,-999.0,46,0.00,,,0.00,Wunderground v.1.15,2013-03-05 00:25:00,
2013-03-04 14:30:00,79.7,57.1,30.04,NE,45,10.0,-999.0,46,0.00,,,0.00,Wunderground v.1.15,2013-03-05 00:30:00,
2013-03-04 14:35:00,79.7,57.1,30.04,NE,45,10.0,-999.0,46,0.00,,,0.00,Wunderground v.1.15,2013-03-05 00:35:00,
2013-03-04 14:40:00,79.7,57.1,30.04,NE,45,10.0,-999.0,46,0.00,,,0.00,Wunderground v.1.15,2013-03-05 00:40:00,
2013-03-04 14:45:00,79.0,58.8,30.03,NE,45,10.0,-999.0,50,0.00,,,0.00,Wunderground v.1.15,2013-03-05 00:45:00,
2013-03-04 14:50:00,79.0,58.8,30.03,NE,45,10.0,-999.0,50,0.00,,,0.00,Wunderground v.1.15,2013-03-05 00:50:00,
2013-03-04 14:55:00,79.0,58.8,30.03,NE,45,10.0,-999.0,50,0.00,,,0.00,Wunderground v.1.15,2013-03-05 00:55:00,
2013-03-04 15:00:00,79.0,58.8,30.03,NE,45,10.0,-999.0,50,0.00,,,0.00,Wunderground v.1.15,2013-03-05 01:00:00,
2013-03-04 15:05:00,79.0,58.8,30.03,NE,45,10.0,-999.0,50,0.00,,,0.00,Wunderground v.1.15,2013-03-05 01:05:00,
2013-03-04 15:10:00,79.0,58.8,30.03,NE,45,10.0,-999.0,50,0.00,,,0.00,Wunderground v.1.15,2013-03-05 01:10:00,
2013-03-04 15:15:00,78.7,58.5,30.03,NE,45,10.0,-999.0,50,0.00,,,0.00,Wunderground v.1.15,2013-03-05 01:15:00,
2013-03-04 15:20:00,78.7,58.5,30.03,NE,45,10.0,-999.0,50,0.00,,,0.00,Wunderground v.1.15,2013-03-05 01:20:00,
2013-03-04 15:25:00,78.7,58.5,30.03,NE,45,10.0,-999.0,50,0.00,,,0.00,Wunderground v.1.15,2013-03-05 01:25:00,
2013-03-04 15:30:00,78.7,58.5,30.03,NE,45,10.0,-999.0,50,0.00,,,0.00,Wunderground v.1.15,2013-03-05 01:30:00,
2013-03-04 15:35:00,78.7,58.5,30.03,NE,45,10.0,-999.0,50,0.00,,,0.00,Wunderground v.1.15,2013-03-05 01:35:00,
2013-03-04 15:40:00,78.7,58.5,30.03,NE,45,10.0,-999.0,50,0.00,,,0.00,Wunderground v.1.15,2013-03-05 01:40:00,
2013-03-04 15:45:00,78.3,58.7,30.04,NE,45,9.0,-999.0,51,0.00,,,0.00,Wunderground v.1.15,2013-03-05 01:45:00,
2013-03-04 15:50:00,78.3,58.7,30.04,NE,45,9.0,-999.0,51,0.00,,,0.00,Wunderground v.1.15,2013-03-05 01:50:00,
2013-03-04 15:55:00,78.3,58.7,30.04,NE,45,9.0,-999.0,51,0.00,,,0.00,Wunderground v.1.15,2013-03-05 01:55:00,
2013-03-04 16:00:00,78.3,58.7,30.04,NE,45,9.0,-999.0,51,0.00,,,0.00,Wunderground v.1.15,2013-03-05 02:00:00,
2013-03-04 16:05:00,78.3,58.7,30.04,NE,45,9.0,-999.0,51,0.00,,,0.00,Wunderground v.1.15,2013-03-05 02:05:00,
2013-03-04 16:10:00,78.3,58.7,30.04,NE,45,9.0,-999.0,51,0.00,,,0.00,Wunderground v.1.15,2013-03-05 02:10:00,
2013-03-04 16:15:00,78.3,60.3,30.04,NE,45,7.0,-999.0,54,0.00,,,0.00,Wunderground v.1.15,2013-03-05 02:15:00,
2013-03-04 16:20:00,78.3,60.3,30.04,NE,45,7.0,-999.0,54,0.00,,,0.00,Wunderground v.1.15,2013-03-05 02:20:00,
2013-03-04 16:25:00,78.3,60.3,30.04,NE,45,7.0,-999.0,54,0.00,,,0.00,Wunderground v.1.15,2013-03-05 02:25:00,
2013-03-04 16:30:00,78.3,60.3,30.04,NE,45,7.0,-999.0,54,0.00,,,0.00,Wunderground v.1.15,2013-03-05 02:30:00,
2013-03-04 16:35:00,78.3,60.3,30.04,NE,45,7.0,-999.0,54,0.00,,,0.00,Wunderground v.1.15,2013-03-05 02:35:00,
2013-03-04 16:40:00,78.3,60.3,30.04,NE,45,7.0,-999.0,54,0.00,,,0.00,Wunderground v.1.15,2013-03-05 02:40:00,
2013-03-04 16:45:00,76.4,60.0,30.05,NE,45,7.0,-999.0,57,0.00,,,0.00,Wunderground v.1.15,2013-03-05 02:45:00,
2013-03-04 16:50:00,76.4,60.0,30.05,NE,45,7.0,-999.0,57,0.00,,,0.00,Wunderground v.1.15,2013-03-05 02:50:00,
2013-03-04 16:55:00,76.4,60.0,30.05,NE,45,7.0,-999.0,57,0.00,,,0.00,Wunderground v.1.15,2013-03-05 02:55:00,
2013-03-04 17:00:00,76.4,60.0,30.05,NE,45,7.0,-999.0,57,0.00,,,0.00,Wunderground v.1.15,2013-03-05 03:00:00,
2013-03-04 17:05:00,76.4,60.0,30.05,NE,45,7.0,-999.0,57,0.00,,,0.00,Wunderground v.1.15,2013-03-05 03:05:00,
2013-03-04 17:10:00,76.4,60.0,30.05,NE,45,7.0,-999.0,57,0.00,,,0.00,Wunderground v.1.15,2013-03-05 03:10:00,
2013-03-04 17:15:00,74.0,60.2,30.05,NE,45,7.0,-999.0,62,0.00,,,0.00,Wunderground v.1.15,2013-03-05 03:15:00,
2013-03-04 17:20:00,74.0,60.2,30.05,NE,45,7.0,-999.0,62,0.00,,,0.00,Wunderground v.1.15,2013-03-05 03:20:00,
2013-03-04 17:25:00,74.0,60.2,30.05,NE,45,7.0,-999.0,62,0.00,,,0.00,Wunderground v.1.15,2013-03-05 03:25:00,
2013-03-04 17:30:00,74.0,60.2,30.05,NE,45,7.0,-999.0,62,0.00,,,0.00,Wunderground v.1.15,2013-03-05 03:30:00,
2013-03-04 17:35:00,74.0,60.2,30.05,NE,45,7.0,-999.0,62,0.00,,,0.00,Wunderground v.1.15,2013-03-05 03:35:00,
2013-03-04 17:40:00,74.0,60.2,30.05,NE,45,7.0,-999.0,62,0.00,,,0.00,Wunderground v.1.15,2013-03-05 03:40:00,
2013-03-04 17:45:00,71.8,59.0,30.06,NE,45,6.0,-999.0,64,0.00,,,0.00,Wunderground v.1.15,2013-03-05 03:45:00,
2013-03-04 17:50:00,71.8,59.0,30.06,NE,45,6.0,-999.0,64,0.00,,,0.00,Wunderground v.1.15,2013-03-05 03:50:00,
2013-03-04 17:55:00,71.8,59.0,30.06,NE,45,6.0,-999.0,64,0.00,,,0.00,Wunderground v.1.15,2013-03-05 03:55:00,
2013-03-04 18:00:00,71.8,59.0,30.06,NE,45,6.0,-999.0,64,0.00,,,0.00,Wunderground v.1.15,2013-03-05 04:00:00,
2013-03-04 18:05:00,71.8,59.0,30.06,NE,45,6.0,-999.0,64,0.00,,,0.00,Wunderground v.1.15,2013-03-05 04:05:00,
2013-03-04 18:10:00,71.8,59.0,30.06,NE,45,6.0,-999.0,64,0.00,,,0.00,Wunderground v.1.15,2013-03-05 04:10:00,
2013-03-04 18:15:00,70.6,58.7,30.06,NE,45,6.0,-999.0,66,0.00,,,0.00,Wunderground v.1.15,2013-03-05 04:15:00,
2013-03-04 18:20:00,70.6,58.7,30.06,NE,45,6.0,-999.0,66,0.00,,,0.00,Wunderground v.1.15,2013-03-05 04:20:00,
2013-03-04 18:25:00,70.6,58.7,30.06,NE,45,6.0,-999.0,66,0.00,,,0.00,Wunderground v.1.15,2013-03-05 04:25:00,
2013-03-04 18:30:00,70.6,58.7,30.06,NE,45,6.0,-999.0,66,0.00,,,0.00,Wunderground v.1.15,2013-03-05 04:30:00,
2013-03-04 18:35:00,70.6,58.7,30.06,NE,45,6.0,-999.0,66,0.00,,,0.00,Wunderground v.1.15,2013-03-05 04:35:00,
2013-03-04 18:40:00,70.6,58.7,30.06,NE,45,6.0,-999.0,66,0.00,,,0.00,Wunderground v.1.15,2013-03-05 04:40:00,
2013-03-04 18:45:00,69.3,58.3,30.06,NE,45,6.0,-999.0,68,0.00,,,0.00,Wunderground v.1.15,2013-03-05 04:45:00,
2013-03-04 18:50:00,69.3,58.3,30.06,NE,45,6.0,-999.0,68,0.00,,,0.00,Wunderground v.1.15,2013-03-05 04:50:00,
2013-03-04 18:55:00,69.3,58.3,30.06,NE,45,6.0,-999.0,68,0.00,,,0.00,Wunderground v.1.15,2013-03-05 04:55:00,
2013-03-04 19:00:00,69.3,58.3,30.06,NE,45,6.0,-999.0,68,0.00,,,0.00,Wunderground v.1.15,2013-03-05 05:00:00,
2013-03-04 19:05:00,69.3,58.3,30.06,NE,45,6.0,-999.0,68,0.00,,,0.00,Wunderground v.1.15,2013-03-05 05:05:00,
2013-03-04 19:10:00,69.3,58.3,30.06,NE,45,6.0,-999.0,68,0.00,,,0.00,Wunderground v.1.15,2013-03-05 05:10:00,
2013-03-04 19:15:00,68.7,58.1,30.06,NE,45,7.0,-999.0,69,0.00,,,0.00,Wunderground v.1.15,2013-03-05 05:15:00,
2013-03-04 19:20:00,68.7,58.1,30.06,NE,45,7.0,-999.0,69,0.00,,,0.00,Wunderground v.1.15,2013-03-05 05:20:00,
2013-03-04 19:25:00,68.7,58.1,30.06,NE,45,7.0,-999.0,69,0.00,,,0.00,Wunderground v.1.15,2013-03-05 05:25:00,
2013-03-04 19:30:00,68.7,58.1,30.06,NE,45,7.0,-999.0,69,0.00,,,0.00,Wunderground v.1.15,2013-03-05 05:30:00,
2013-03-04 19:35:00,68.7,58.1,30.06,NE,45,7.0,-999.0,69,0.00,,,0.00,Wunderground v.1.15,2013-03-05 05:35:00,
2013-03-04 19:40:00,68.7,58.1,30.06,NE,45,7.0,-999.0,69,0.00,,,0.00,Wunderground v.1.15,2013-03-05 05:40:00,
2013-03-04 19:45:00,68.2,58.0,30.07,NE,45,8.0,-999.0,70,0.00,,,0.00,Wunderground v.1.15,2013-03-05 05:45:00,
2013-03-04 19:50:00,68.2,58.0,30.07,NE,45,8.0,-999.0,70,0.00,,,0.00,Wunderground v.1.15,2013-03-05 05:50:00,
2013-03-04 19:55:00,68.2,58.0,30.07,NE,45,8.0,-999.0,70,0.00,,,0.00,Wunderground v.1.15,2013-03-05 05:55:00,
2013-03-04 20:00:00,68.2,58.0,30.07,NE,45,8.0,-999.0,70,0.00,,,0.00,Wunderground v.1.15,2013-03-05 06:00:00,
2013-03-04 20:05:00,68.2,58.0,30.07,NE,45,8.0,-999.0,70,0.00,,,0.00,Wunderground v.1.15,2013-03-05 06:05:00,
2013-03-04 20:10:00,68.2,58.0,30.07,NE,45,8.0,-999.0,70,0.00,,,0.00,Wunderground v.1.15,2013-03-05 06:10:00,
2013-03-04 20:15:00,67.5,58.2,30.07,NE,45,8.0,-999.0,72,0.00,,,0.00,Wunderground v.1.15,2013-03-05 06:15:00,
2013-03-04 20:20:00,67.5,58.2,30.07,NE,45,8.0,-999.0,72,0.00,,,0.00,Wunderground v.1.15,2013-03-05 06:20:00,
2013-03-04 20:25:00,67.5,58.2,30.07,NE,45,8.0,-999.0,72,0.00,,,0.00,Wunderground v.1.15,2013-03-05 06:25:00,
2013-03-04 20:30:00,67.5,58.2,30.07,NE,45,8.0,-999.0,72,0.00,,,0.00,Wunderground v.1.15,2013-03-05 06:30:00,
2013-03-04 20:35:00,67.5,58.2,30.07,NE,45,8.0,-999.0,72,0.00,,,0.00,Wunderground v.1.15,2013-03-05 06:35:00,
2013-03-04 20:40:00,67.5,58.2,30.07,NE,45,8.0,-999.0,72,0.00,,,0.00,Wunderground v.1.15,2013-03-05 06:40:00,
2013-03-04 20:45:00,67.3,57.6,30.07,NE,45,8.0,-999.0,71,0.00,,,0.00,Wunderground v.1.15,2013-03-05 06:45:00,
2013-03-04 20:50:00,67.3,57.6,30.07,NE,45,8.0,-999.0,71,0.00,,,0.00,Wunderground v.1.15,2013-03-05 06:50:00,
2013-03-04 20:55:00,67.3,57.6,30.07,NE,45,8.0,-999.0,71,0.00,,,0.00,Wunderground v.1.15,2013-03-05 06:55:00,
2013-03-04 21:00:00,67.3,57.6,30.07,NE,45,8.0,-999.0,71,0.00,,,0.00,Wunderground v.1.15,2013-03-05 07:00:00,
2013-03-04 21:05:00,67.3,57.6,30.07,NE,45,8.0,-999.0,71,0.00,,,0.00,Wunderground v.1.15,2013-03-05 07:05:00,
2013-03-04 21:10:00,67.3,57.6,30.07,NE,45,8.0,-999.0,71,0.00,,,0.00,Wunderground v.1.15,2013-03-05 07:10:00,
2013-03-04 21:15:00,67.2,57.5,30.08,NE,45,7.0,-999.0,71,0.00,,,0.00,Wunderground v.1.15,2013-03-05 07:15:00,
2013-03-04 21:20:00,67.2,57.5,30.08,NE,45,7.0,-999.0,71,0.00,,,0.00,Wunderground v.1.15,2013-03-05 07:20:00,
2013-03-04 21:25:00,67.2,57.5,30.08,NE,45,7.0,-999.0,71,0.00,,,0.00,Wunderground v.1.15,2013-03-05 07:25:00,
2013-03-04 21:30:00,67.2,57.5,30.08,NE,45,7.0,-999.0,71,0.00,,,0.00,Wunderground v.1.15,2013-03-05 07:30:00,
2013-03-04 21:35:00,67.2,57.5,30.08,NE,45,7.0,-999.0,71,0.00,,,0.00,Wunderground v.1.15,2013-03-05 07:35:00,
2013-03-04 21:40:00,67.2,57.5,30.08,NE,45,7.0,-999.0,71,0.00,,,0.00,Wunderground v.1.15,2013-03-05 07:40:00,
2013-03-04 21:45:00,67.0,56.9,30.08,NE,45,7.0,-999.0,70,0.00,,,0.00,Wunderground v.1.15,2013-03-05 07:45:00,
2013-03-04 21:50:00,67.0,56.9,30.08,NE,45,7.0,-999.0,70,0.00,,,0.00,Wunderground v.1.15,2013-03-05 07:50:00,
2013-03-04 21:55:00,67.0,56.9,30.08,NE,45,7.0,-999.0,70,0.00,,,0.00,Wunderground v.1.15,2013-03-05 07:55:00,
2013-03-04 22:00:00,67.0,56.9,30.08,NE,45,7.0,-999.0,70,0.00,,,0.00,Wunderground v.1.15,2013-03-05 08:00:00,
2013-03-04 22:05:00,67.0,56.9,30.08,NE,45,7.0,-999.0,70,0.00,,,0.00,Wunderground v.1.15,2013-03-05 08:05:00,
2013-03-04 22:10:00,67.0,56.9,30.08,NE,45,7.0,-999.0,70,0.00,,,0.00,Wunderground v.1.15,2013-03-05 08:10:00,
2013-03-04 22:15:00,66.8,56.3,30.08,NE,45,8.0,-999.0,69,0.00,,,0.00,Wunderground v.1.15,2013-03-05 08:15:00,
2013-03-04 22:20:00,66.8,56.3,30.08,NE,45,8.0,-999.0,69,0.00,,,0.00,Wunderground v.1.15,2013-03-05 08:20:00,
2013-03-04 22:25:00,66.8,56.3,30.08,NE,45,8.0,-999.0,69,0.00,,,0.00,Wunderground v.1.15,2013-03-05 08:25:00,
2013-03-04 22:30:00,66.8,56.3,30.08,NE,45,8.0,-999.0,69,0.00,,,0.00,Wunderground v.1.15,2013-03-05 08:30:00,
2013-03-04 22:35:00,66.8,56.3,30.08,NE,45,8.0,-999.0,69,0.00,,,0.00,Wunderground v.1.15,2013-03-05 08:35:00,
2013-03-04 22:40:00,66.8,56.3,30.08,NE,45,8.0,-999.0,69,0.00,,,0.00,Wunderground v.1.15,2013-03-05 08:40:00,
2013-03-04 22:45:00,66.6,55.7,30.08,NE,45,5.0,-999.0,68,0.00,,,0.00,Wunderground v.1.15,2013-03-05 08:45:00,
2013-03-04 22:50:00,66.6,55.7,30.08,NE,45,5.0,-999.0,68,0.00,,,0.00,Wunderground v.1.15,2013-03-05 08:50:00,
2013-03-04 22:55:00,66.6,55.7,30.08,NE,45,5.0,-999.0,68,0.00,,,0.00,Wunderground v.1.15,2013-03-05 08:55:00,
2013-03-04 23:00:00,66.6,55.7,30.08,NE,45,5.0,-999.0,68,0.00,,,0.00,Wunderground v.1.15,2013-03-05 09:00:00,
2013-03-04 23:05:00,66.6,55.7,30.08,NE,45,5.0,-999.0,68,0.00,,,0.00,Wunderground v.1.15,2013-03-05 09:05:00,
2013-03-04 23:10:00,66.6,55.7,30.08,NE,45,5.0,-999.0,68,0.00,,,0.00,Wunderground v.1.15,2013-03-05 09:10:00,
2013-03-04 23:15:00,66.6,55.3,30.08,NE,45,5.0,-999.0,67,0.00,,,0.00,Wunderground v.1.15,2013-03-05 09:15:00,
2013-03-04 23:20:00,66.6,55.3,30.08,NE,45,5.0,-999.0,67,0.00,,,0.00,Wunderground v.1.15,2013-03-05 09:20:00,
2013-03-04 23:25:00,66.6,55.3,30.08,NE,45,5.0,-999.0,67,0.00,,,0.00,Wunderground v.1.15,2013-03-05 09:25:00,
2013-03-04 23:30:00,66.6,55.3,30.08,NE,45,5.0,-999.0,67,0.00,,,0.00,Wunderground v.1.15,2013-03-05 09:30:00,
2013-03-04 23:35:00,66.6,55.3,30.08,NE,45,5.0,-999.0,67,0.00,,,0.00,Wunderground v.1.15,2013-03-05 09:35:00,
2013-03-04 23:40:00,66.6,55.3,30.08,NE,45,5.0,-999.0,67,0.00,,,0.00,Wunderground v.1.15,2013-03-05 09:40:00,
2013-03-04 23:45:00,66.3,55.4,30.07,NE,45,5.0,-999.0,68,0.00,,,0.00,Wunderground v.1.15,2013-03-05 09:45:00,
2013-03-04 23:50:00,66.3,55.4,30.07,NE,45,5.0,-999.0,68,0.00,,,0.00,Wunderground v.1.15,2013-03-05 09:50:00,
2013-03-04 23:55:00,66.3,55.4,30.07,NE,45,5.0,-999.0,68,0.00,,,0.00,Wunderground v.1.15,2013-03-05 09:55:00,